Time;durP1;ratioP1;P1;durP2;ratioP2;P2;SDS_P1;SDS_P2;PMS_P1;PMS_P2;Temp;Humidity;BMP_temperature;BMP_pressure;BME280_temperature;BME280_humidity;BME280_pressure;Samples;Min_cycle;Max_cycle;Signal;HPM_P1;HPM_P2
2022/07/03 00:00:20;;;;;;;;;11.20;11.20;;;;;27.00;52.00;99602.72;5088402;28;8834;-74
2022/07/03 00:03:03;;;;;;;;;10.40;10.40;;;;;26.98;52.27;99594.78;5088096;28;8865;-74
2022/07/03 00:05:33;;;;;;;;;11.40;10.40;;;;;26.99;51.93;99598.31;5088065;28;8880;-72
2022/07/03 00:08:04;;;;;;;;;8.60;8.60;;;;;27.00;51.86;99602.72;5071026;28;8966;-75
2022/07/03 00:10:33;;;;;;;;;7.20;7.20;;;;;27.00;51.98;99598.22;5038711;28;8849;-74
2022/07/03 00:13:01;;;;;;;;;7.20;6.60;;;;;27.00;52.38;99605.38;5071069;28;8984;-75
2022/07/03 00:15:30;;;;;;;;;9.20;9.20;;;;;26.97;52.29;99608.25;5054233;28;9619;-75
2022/07/03 00:17:59;;;;;;;;;10.00;10.00;;;;;26.90;52.21;99604.28;5087715;28;8865;-73
2022/07/03 00:20:31;;;;;;;;;10.00;8.20;;;;;26.84;52.53;99608.22;5090001;28;8872;-73
2022/07/03 00:23:07;;;;;;;;;10.60;9.00;;;;;26.78;52.55;99603.28;5091744;28;8988;-74
2022/07/03 00:25:38;;;;;;;;;8.00;8.00;;;;;26.77;52.89;99602.44;5092638;28;8867;-73
2022/07/03 00:28:09;;;;;;;;;9.20;9.20;;;;;26.76;52.87;99600.72;5089673;28;8852;-76
2022/07/03 00:30:38;;;;;;;;;8.20;8.00;;;;;26.78;52.54;99596.13;5090296;28;8835;-73
2022/07/03 00:33:07;;;;;;;;;7.20;7.20;;;;;26.76;52.85;99586.50;5089870;28;8840;-76
2022/07/03 00:35:38;;;;;;;;;7.60;7.60;;;;;26.71;52.98;99591.28;5088593;28;8968;-74
2022/07/03 00:38:08;;;;;;;;;9.40;8.60;;;;;26.72;52.82;99593.00;5070818;28;8864;-73
2022/07/03 00:40:37;;;;;;;;;8.60;8.60;;;;;26.73;53.02;99592.03;5089990;28;9623;-77
2022/07/03 00:43:06;;;;;;;;;11.80;11.20;;;;;26.71;53.17;99597.50;5089877;28;8840;-75
2022/07/03 00:45:35;;;;;;;;;12.40;9.40;;;;;26.74;52.69;99593.75;5071620;28;8851;-73
2022/07/03 00:48:08;;;;;;;;;10.80;10.80;;;;;26.74;52.71;99593.75;5090047;28;8835;-73
2022/07/03 00:50:37;;;;;;;;;10.60;10.60;;;;;26.74;53.12;99586.59;5090007;28;8888;-75
2022/07/03 00:53:10;;;;;;;;;10.60;9.40;;;;;26.75;53.19;99592.78;5089815;28;8876;-73
2022/07/03 00:55:41;;;;;;;;;11.20;9.40;;;;;26.69;53.34;99582.50;5089639;28;8913;-74
2022/07/03 00:58:10;;;;;;;;;10.80;9.20;;;;;26.68;53.42;99587.00;5090006;28;8835;-73
2022/07/03 01:00:40;;;;;;;;;8.40;8.00;;;;;26.69;53.46;99579.81;5071089;28;8882;-74
2022/07/03 01:03:16;;;;;;;;;9.00;9.00;;;;;26.71;53.12;99580.56;5037955;28;8849;-74
2022/07/03 01:05:50;;;;;;;;;8.80;8.80;;;;;26.69;53.33;99579.81;5071392;28;8924;-74
2022/07/03 01:08:26;;;;;;;;;10.40;10.40;;;;;26.70;53.18;99584.22;5089663;28;8877;-74
2022/07/03 01:11:03;;;;;;;;;8.40;8.40;;;;;26.69;53.09;99580.66;5089229;28;8853;-74
2022/07/03 01:13:40;;;;;;;;;9.20;9.20;;;;;26.68;53.19;99573.63;5070964;28;8851;-74
2022/07/03 01:16:20;;;;;;;;;9.00;9.00;;;;;26.66;53.59;99570.19;5089556;28;8928;-73
2022/07/03 01:18:52;;;;;;;;;9.40;9.40;;;;;26.62;53.45;99576.72;5089617;28;8894;-76
2022/07/03 01:21:43;;;;;;;;;10.00;10.00;;;;;26.59;53.84;99569.72;5089405;28;8844;-74
2022/07/03 01:24:44;;;;;;;;;9.80;9.60;;;;;26.61;53.42;99566.97;5088269;28;8851;-74
2022/07/03 01:27:20;;;;;;;;;11.20;9.20;;;;;26.52;53.62;99565.75;5089010;28;8836;-74
2022/07/03 01:29:55;;;;;;;;;8.60;8.60;;;;;26.52;53.84;99568.41;5087973;28;8920;-73
2022/07/03 01:32:28;;;;;;;;;9.40;9.40;;;;;26.46;53.94;99566.13;5076903;28;8845;-74
2022/07/03 01:35:01;;;;;;;;;9.80;9.80;;;;;26.47;54.04;99572.34;5093847;28;8869;-73
2022/07/03 01:37:32;;;;;;;;;11.00;11.00;;;;;26.44;54.01;99573.41;5070023;28;8873;-75
2022/07/03 01:40:04;;;;;;;;;8.80;8.80;;;;;26.41;54.45;99565.59;5086809;28;8946;-73
2022/07/03 01:42:38;;;;;;;;;9.80;8.00;;;;;26.41;53.86;99566.44;5069617;28;8853;-75
2022/07/03 01:45:10;;;;;;;;;10.00;10.00;;;;;26.39;54.38;99568.38;5086543;28;8858;-76
2022/07/03 01:47:42;;;;;;;;;12.00;10.00;;;;;26.39;54.32;99570.16;5086368;28;8834;-74
2022/07/03 01:50:13;;;;;;;;;7.20;7.00;;;;;26.35;54.80;99568.66;5069748;28;8822;-74
2022/07/03 01:52:45;;;;;;;;;8.20;8.20;;;;;26.33;54.69;99568.75;5086357;28;8841;-74
2022/07/03 01:55:15;;;;;;;;;5.20;5.20;;;;;26.25;54.97;99571.94;5069890;28;8962;-73
2022/07/03 01:57:47;;;;;;;;;12.40;10.00;;;;;26.22;54.79;99568.63;5086533;28;9028;-74
2022/07/03 02:00:18;;;;;;;;;8.40;8.40;;;;;26.18;55.24;99569.75;5086369;28;8911;-74
2022/07/03 02:02:56;;;;;;;;;8.20;8.20;;;;;26.21;54.99;99569.56;5053466;28;8820;-74
2022/07/03 02:05:34;;;;;;;;;8.00;8.00;;;;;26.19;55.13;99580.34;5088828;28;8882;-74
2022/07/03 02:08:22;;;;;;;;;10.40;10.00;;;;;26.20;55.23;99581.19;5087787;28;8877;-75
2022/07/03 02:11:04;;;;;;;;;8.40;8.40;;;;;26.18;55.24;99575.09;5092237;28;9609;-73
2022/07/03 02:13:39;;;;;;;;;9.80;8.40;;;;;26.16;55.66;99574.34;5072630;28;9660;-76
2022/07/03 02:16:09;;;;;;;;;11.00;10.00;;;;;26.15;55.67;99578.00;5089060;28;8848;-74
2022/07/03 02:18:40;;;;;;;;;9.60;9.00;;;;;26.05;55.73;99577.72;5088895;28;8861;-75
2022/07/03 02:21:15;;;;;;;;;9.20;8.80;;;;;26.04;56.06;99584.88;5087100;28;8981;-75
2022/07/03 02:23:54;;;;;;;;;12.00;9.80;;;;;25.97;56.39;99570.19;5087616;28;8844;-72
2022/07/03 02:26:30;;;;;;;;;9.60;9.40;;;;;25.91;56.64;99572.38;5088400;28;8824;-76
2022/07/03 02:29:04;;;;;;;;;13.00;11.00;;;;;25.82;57.13;99580.03;5088750;28;8881;-74
2022/07/03 02:31:39;;;;;;;;;11.00;10.20;;;;;25.81;57.23;99572.09;5088142;28;8844;-78
2022/07/03 02:34:09;;;;;;;;;12.40;11.80;;;;;25.72;57.53;99581.53;5088720;28;8856;-73
2022/07/03 02:36:41;;;;;;;;;10.20;10.20;;;;;25.63;57.87;99574.09;5088652;28;8880;-73
2022/07/03 02:39:17;;;;;;;;;12.40;12.40;;;;;25.64;57.69;99571.34;5087165;28;8836;-73
2022/07/03 02:41:51;;;;;;;;;12.40;12.00;;;;;25.67;57.71;99578.28;5088298;28;8875;-75
2022/07/03 02:44:28;;;;;;;;;12.80;11.00;;;;;25.70;57.48;99567.41;5088189;28;8859;-72
2022/07/03 02:47:04;;;;;;;;;10.00;9.40;;;;;25.70;57.56;99567.41;5052473;28;8878;-76
2022/07/03 02:49:43;;;;;;;;;9.20;9.20;;;;;25.73;57.45;99580.59;5088414;28;8871;-74
2022/07/03 02:52:25;;;;;;;;;10.40;10.00;;;;;25.66;57.66;99574.75;5088885;28;8956;-73
2022/07/03 02:54:58;;;;;;;;;12.00;10.40;;;;;25.64;58.06;99576.69;5091926;28;8867;-75
2022/07/03 02:57:40;;;;;;;;;11.00;10.40;;;;;25.63;57.93;99566.09;5124546;27;8948;-73
2022/07/03 03:00:12;;;;;;;;;12.40;11.40;;;;;25.63;58.19;99566.97;5056353;28;8831;-73
2022/07/03 03:02:55;;;;;;;;;10.60;10.60;;;;;25.67;58.01;99564.94;5090445;28;8840;-74
2022/07/03 03:05:31;;;;;;;;;9.80;9.80;;;;;25.68;57.98;99561.31;5092046;28;8852;-75
2022/07/03 03:08:19;;;;;;;;;11.60;11.00;;;;;25.71;58.29;99566.47;5091690;28;8860;-75
2022/07/03 03:10:49;;;;;;;;;12.00;9.40;;;;;25.73;57.76;99567.25;5032580;28;8846;-76
2022/07/03 03:13:19;;;;;;;;;12.40;11.00;;;;;25.73;58.40;99561.00;5048660;28;8884;-74
2022/07/03 03:16:06;;;;;;;;;13.80;13.40;;;;;25.78;57.87;99572.28;5048957;28;8854;-74
2022/07/03 03:18:37;;;;;;;;;11.80;11.80;;;;;25.77;58.08;99571.44;5048808;28;8853;-74
2022/07/03 03:21:10;;;;;;;;;12.60;11.80;;;;;25.80;57.92;99568.56;5032437;28;8838;-73
2022/07/03 03:23:45;;;;;;;;;12.80;11.20;;;;;25.82;58.19;99565.78;5048626;28;8872;-74
2022/07/03 03:26:15;;;;;;;;;17.00;16.00;;;;;25.80;58.55;99570.38;5049049;28;8872;-74
2022/07/03 03:28:44;;;;;;;;;16.20;14.40;;;;;25.79;58.37;99574.00;5048556;28;8861;-73
2022/07/03 03:31:14;;;;;;;;;14.60;14.60;;;;;25.84;57.98;99579.91;5048731;28;8854;-73
2022/07/03 03:33:44;;;;;;;;;13.20;13.00;;;;;25.85;58.25;99570.94;5048644;28;9047;-73
2022/07/03 03:36:17;;;;;;;;;12.00;12.00;;;;;25.88;58.25;99573.44;5048091;28;8881;-75
2022/07/03 03:38:46;;;;;;;;;14.00;13.00;;;;;25.90;57.97;99568.84;5064723;28;8974;-72
2022/07/03 03:41:15;;;;;;;;;13.80;13.60;;;;;25.95;58.05;99579.25;5031750;28;8888;-75
2022/07/03 03:43:45;;;;;;;;;13.80;13.00;;;;;25.96;57.86;99581.84;5048579;28;8981;-75
2022/07/03 03:46:15;;;;;;;;;18.80;16.40;;;;;25.98;57.96;99581.75;5048548;28;8858;-73
2022/07/03 03:48:45;;;;;;;;;17.40;15.40;;;;;25.89;58.46;99577.81;5075246;28;8991;-72
2022/07/03 03:51:13;;;;;;;;;17.00;14.20;;;;;25.96;58.33;99581.00;5088617;28;8944;-74
2022/07/03 03:53:43;;;;;;;;;13.80;13.80;;;;;25.96;57.92;99575.66;5089852;28;8860;-74
2022/07/03 03:56:16;;;;;;;;;15.60;15.00;;;;;26.03;57.64;99577.81;5090926;28;8951;-73
2022/07/03 03:58:45;;;;;;;;;13.60;13.60;;;;;26.09;57.91;99573.91;5090053;28;8863;-72
2022/07/03 04:01:15;;;;;;;;;15.20;14.20;;;;;26.17;57.38;99576.91;5095064;28;8943;-73
2022/07/03 04:03:44;;;;;;;;;16.00;16.00;;;;;26.24;57.08;99577.41;5074905;28;8902;-74
2022/07/03 04:06:12;;;;;;;;;17.60;14.00;;;;;26.32;57.04;99584.91;5088251;28;8848;-73
2022/07/03 04:08:41;;;;;;;;;15.60;14.00;;;;;26.29;56.99;99588.63;5089232;28;8860;-74
2022/07/03 04:11:10;;;;;;;;;15.80;15.60;;;;;26.36;57.09;99584.59;5090659;28;8839;-74
2022/07/03 04:13:38;;;;;;;;;12.60;12.60;;;;;26.46;56.86;99574.16;5090457;28;8827;-74
2022/07/03 04:16:07;;;;;;;;;14.40;14.40;;;;;26.54;56.66;99579.00;5089293;28;8996;-74
2022/07/03 04:18:37;;;;;;;;;14.80;14.20;;;;;26.60;56.41;99576.81;5089379;28;8832;-73
2022/07/03 04:21:05;;;;;;;;;16.80;13.80;;;;;26.66;56.27;99572.03;5089020;28;8831;-76
2022/07/03 04:23:34;;;;;;;;;12.80;12.40;;;;;26.72;55.69;99569.78;5090246;28;8852;-76
2022/07/03 04:26:06;;;;;;;;;26.50;26.50;;;;;26.79;55.67;99559.53;5090279;28;8871;-74
2022/07/03 04:28:41;;;;;;;;;16.20;16.20;;;;;26.81;55.42;99558.47;5056451;28;8867;-73
2022/07/03 04:31:10;;;;;;;;;17.40;16.40;;;;;26.77;55.78;99567.66;5090176;28;8864;-73
2022/07/03 04:33:40;;;;;;;;;13.00;13.00;;;;;26.85;55.33;99572.50;5071186;28;8831;-73
2022/07/03 04:36:15;;;;;;;;;15.20;14.00;;;;;26.94;55.03;99571.88;5090130;28;8871;-72
2022/07/03 04:38:44;;;;;;;;;12.60;12.00;;;;;26.96;54.64;99564.59;5071905;28;8847;-74
2022/07/03 04:41:12;;;;;;;;;16.00;15.00;;;;;26.92;54.66;99559.53;5089926;28;8835;-74
2022/07/03 04:43:41;;;;;;;;;12.00;12.00;;;;;26.92;54.94;99562.22;5070932;28;8859;-74
2022/07/03 04:46:10;;;;;;;;;16.20;15.80;;;;;27.00;54.58;99557.22;5089670;28;9594;-73
2022/07/03 04:48:40;;;;;;;;;16.00;15.00;;;;;26.93;54.59;99562.13;5088627;28;8844;-74
2022/07/03 04:51:09;;;;;;;;;15.80;14.00;;;;;26.99;54.59;99563.50;5089662;28;8847;-78
2022/07/03 04:53:38;;;;;;;;;13.80;12.20;;;;;27.07;54.23;99565.66;5089823;28;8865;-75
2022/07/03 04:56:06;;;;;;;;;13.20;12.60;;;;;27.22;54.44;99564.59;5089828;28;8844;-74
2022/07/03 04:58:35;;;;;;;;;12.20;11.60;;;;;27.28;53.87;99563.34;5089881;28;8870;-74
2022/07/03 05:01:04;;;;;;;;;24.50;24.50;;;;;27.32;53.85;99559.53;5089628;28;8847;-72
2022/07/03 05:03:32;;;;;;;;;18.00;16.00;;;;;27.32;54.12;99564.88;5089558;28;8844;-73
2022/07/03 05:06:03;;;;;;;;;11.40;11.40;;;;;27.41;54.26;99564.19;5089356;28;8855;-74
2022/07/03 05:08:31;;;;;;;;;13.40;13.40;;;;;27.56;53.32;99560.47;5089543;28;9632;-73
2022/07/03 05:11:00;;;;;;;;;14.00;12.80;;;;;27.67;53.48;99553.47;5087895;28;8856;-74
2022/07/03 05:13:29;;;;;;;;;11.00;10.60;;;;;27.56;52.84;99568.50;5089563;28;8861;-76
2022/07/03 05:15:57;;;;;;;;;12.00;12.00;;;;;27.61;52.82;99562.81;5069555;28;8847;-75
2022/07/03 05:18:25;;;;;;;;;13.60;13.60;;;;;27.39;53.31;99576.84;5093852;28;8856;-75
2022/07/03 05:20:54;;;;;;;;;12.40;12.00;;;;;27.51;53.34;99581.34;5095747;28;8836;-74
2022/07/03 05:23:24;;;;;;;;;13.60;13.20;;;;;27.68;52.89;99573.97;5089581;28;8867;-74
2022/07/03 05:25:55;;;;;;;;;23.60;23.60;;;;;27.56;52.62;99581.91;5089352;28;9040;-71
2022/07/03 05:28:23;;;;;;;;;31.75;30.50;;;;;27.32;53.90;99578.25;5086687;28;8969;-74
2022/07/03 05:30:52;;;;;;;;;15.80;15.80;;;;;26.90;55.22;99580.19;5070279;28;8860;-75
2022/07/03 05:33:20;;;;;;;;;17.40;17.00;;;;;26.75;55.80;99582.97;5087502;28;8890;-75
2022/07/03 05:35:49;;;;;;;;;16.00;15.40;;;;;26.94;55.45;99587.06;5070165;28;8864;-73
2022/07/03 05:39:31;;;;;;;;;10.80;10.80;;;;;27.20;55.12;99594.19;5087173;28;8856;-74
2022/07/03 05:41:09;;;;;;;;;16.20;16.20;;;;;27.41;54.33;99591.88;5066129;28;8834;-73
2022/07/03 05:43:37;;;;;;;;;13.20;13.20;;;;;27.41;53.71;99591.88;5049381;28;8833;-75
2022/07/03 05:46:06;;;;;;;;;17.00;16.60;;;;;27.46;53.52;99591.53;5066145;28;9086;-75
2022/07/03 05:48:35;;;;;;;;;29.75;27.75;;;;;27.57;53.47;99593.47;5067595;28;8838;-75
2022/07/03 05:51:04;;;;;;;;;22.00;21.25;;;;;27.67;53.76;99596.34;5051289;28;8964;-74
2022/07/03 05:53:32;;;;;;;;;16.20;15.00;;;;;27.76;53.51;99601.06;5066381;28;9022;-72
2022/07/03 05:56:01;;;;;;;;;14.00;14.00;;;;;28.12;52.70;99597.56;5065896;28;8969;-73
2022/07/03 05:58:31;;;;;;;;;12.80;12.00;;;;;28.37;51.73;99604.69;5066198;28;8946;-74
2022/07/03 06:00:59;;;;;;;;;11.80;11.80;;;;;28.58;50.74;99610.31;5066151;28;8978;-73
2022/07/03 06:03:28;;;;;;;;;15.40;14.20;;;;;27.62;53.33;99604.72;5066522;28;8892;-75
2022/07/03 06:05:56;;;;;;;;;16.00;14.20;;;;;27.76;52.95;99607.25;5066442;28;8841;-74
2022/07/03 06:08:25;;;;;;;;;12.40;12.20;;;;;27.47;53.59;99605.78;5049220;28;8841;-75
2022/07/03 06:10:53;;;;;;;;;13.20;13.20;;;;;27.31;54.30;99606.00;5065927;28;8829;-75
2022/07/03 06:13:22;;;;;;;;;14.40;14.40;;;;;27.59;53.76;99608.44;5087237;28;8852;-75
2022/07/03 06:15:52;;;;;;;;;14.40;14.20;;;;;27.60;53.43;99607.50;5103414;28;8847;-74
2022/07/03 06:18:21;;;;;;;;;26.60;23.20;;;;;26.98;55.43;99612.66;5088768;28;8878;-77
2022/07/03 06:20:49;;;;;;;;;10.20;10.20;;;;;27.13;55.68;99619.66;5087399;28;8983;-75
2022/07/03 06:23:18;;;;;;;;;13.60;13.40;;;;;26.49;57.96;99618.59;5089058;28;8978;-74
2022/07/03 06:26:07;;;;;;;;;15.20;15.00;;;;;26.51;58.02;99619.34;5086623;28;8894;-74
2022/07/03 06:28:35;;;;;;;;;14.20;14.00;;;;;26.57;58.02;99606.41;5092171;28;8851;-74
2022/07/03 06:31:05;;;;;;;;;15.60;15.40;;;;;26.43;58.62;99623.38;5092425;28;8863;-77
2022/07/03 06:33:34;;;;;;;;;13.40;13.40;;;;;26.34;59.18;99623.97;5073015;28;8851;-75
2022/07/03 06:36:02;;;;;;;;;15.80;14.00;;;;;25.63;60.37;99625.72;5092618;28;8894;-74
2022/07/03 06:38:31;;;;;;;;;16.20;16.20;;;;;25.62;60.86;99621.31;5092297;28;8974;-73
2022/07/03 06:40:59;;;;;;;;;44.00;36.00;;;;;25.82;60.52;99620.09;5091321;28;8851;-74
2022/07/03 06:43:28;;;;;;;;;16.40;14.60;;;;;25.96;60.13;99624.59;5090895;28;8867;-73
2022/07/03 06:45:57;;;;;;;;;15.40;15.40;;;;;26.23;59.10;99623.78;5092080;28;8836;-73
2022/07/03 06:48:27;;;;;;;;;15.60;15.60;;;;;25.58;61.00;99616.28;5089855;28;8859;-73
2022/07/03 06:50:56;;;;;;;;;14.60;14.20;;;;;25.36;61.83;99619.38;5090800;28;8969;-73
2022/07/03 06:53:24;;;;;;;;;15.60;15.60;;;;;25.31;62.52;99624.13;5056186;28;8860;-75
2022/07/03 06:55:53;;;;;;;;;18.60;16.20;;;;;25.55;60.62;99613.78;5073140;28;8859;-72
2022/07/03 06:58:21;;;;;;;;;16.20;16.20;;;;;25.74;59.07;99616.19;5091386;28;8848;-72
2022/07/03 07:00:50;;;;;;;;;15.60;15.00;;;;;25.54;59.05;99612.06;5091872;28;8943;-75
2022/07/03 07:03:19;;;;;;;;;13.40;12.80;;;;;25.41;59.91;99617.31;5092442;28;8839;-75
2022/07/03 07:05:49;;;;;;;;;18.80;17.80;;;;;25.64;58.52;99611.41;5092048;28;8875;-72
2022/07/03 07:08:17;;;;;;;;;15.00;15.00;;;;;25.79;58.88;99604.25;5090704;28;8959;-72
2022/07/03 07:10:46;;;;;;;;;15.60;15.20;;;;;26.02;58.19;99605.50;5090044;28;8820;-73
2022/07/03 07:13:14;;;;;;;;;16.60;16.20;;;;;26.06;58.88;99606.16;5091662;28;8887;-71
2022/07/03 07:15:43;;;;;;;;;15.60;15.60;;;;;26.12;58.36;99595.06;5091484;28;8883;-72
2022/07/03 07:18:11;;;;;;;;;24.00;23.75;;;;;26.60;57.32;99590.19;5055479;28;8886;-72
2022/07/03 07:20:40;;;;;;;;;21.75;21.25;;;;;26.95;56.01;99591.44;5089895;28;8839;-72
2022/07/03 07:23:10;;;;;;;;;16.40;16.40;;;;;27.24;55.61;99592.16;5090140;28;8962;-73
2022/07/03 07:25:39;;;;;;;;;17.80;16.20;;;;;27.74;54.62;99581.56;5091278;28;8851;-73
2022/07/03 07:28:11;;;;;;;;;15.80;14.80;;;;;28.16;52.89;99582.97;5091435;28;9018;-72
2022/07/03 07:30:40;;;;;;;;;15.60;15.60;;;;;27.91;53.28;99583.91;5090925;28;8844;-73
2022/07/03 07:33:09;;;;;;;;;17.00;16.20;;;;;27.61;54.10;99587.75;5091226;28;9010;-73
2022/07/03 07:35:37;;;;;;;;;15.80;15.80;;;;;27.64;53.86;99592.06;5091272;28;9605;-75
2022/07/03 07:38:06;;;;;;;;;16.00;16.00;;;;;27.42;54.53;99588.19;5091740;28;8963;-71
2022/07/03 07:40:38;;;;;;;;;22.25;21.25;;;;;27.67;53.70;99589.16;5091745;28;8840;-74
2022/07/03 07:43:07;;;;;;;;;19.40;19.40;;;;;27.73;53.30;99583.38;5071775;28;8863;-73
2022/07/03 07:45:36;;;;;;;;;16.00;15.40;;;;;27.56;52.89;99586.38;5090947;28;8843;-73
2022/07/03 07:48:05;;;;;;;;;17.60;17.40;;;;;27.51;53.18;99577.84;5090980;28;8993;-73
2022/07/03 07:50:34;;;;;;;;;14.00;12.20;;;;;27.56;51.64;99576.53;5090783;28;8851;-76
2022/07/03 07:53:03;;;;;;;;;14.40;14.40;;;;;28.00;50.84;99577.03;5105407;28;8827;-75
2022/07/03 07:55:32;;;;;;;;;16.60;16.40;;;;;28.17;50.18;99579.34;5089659;28;8866;-72
2022/07/03 07:58:02;;;;;;;;;15.00;15.00;;;;;27.76;50.68;99571.56;5090715;28;8859;-73
2022/07/03 08:00:30;;;;;;;;;19.00;18.60;;;;;27.58;50.55;99579.97;5090370;28;8870;-73
2022/07/03 08:05:45;;;;;;;;;16.50;15.00;;;;;27.41;51.61;99570.44;5089252;28;8840;-75
2022/07/03 08:08:14;;;;;;;;;17.20;17.20;;;;;27.58;50.81;99573.72;5071151;28;8855;-74
2022/07/03 08:10:46;;;;;;;;;17.40;15.80;;;;;27.89;50.75;99569.75;5088988;28;8856;-74
2022/07/03 08:13:18;;;;;;;;;18.20;16.60;;;;;28.33;49.62;99568.31;5088636;28;8843;-73
2022/07/03 08:15:48;;;;;;;;;18.00;18.00;;;;;28.76;48.45;99572.34;5088070;28;8832;-75
2022/07/03 08:18:17;;;;;;;;;16.20;16.20;;;;;29.12;47.79;99568.66;5088756;28;8847;-74
2022/07/03 08:20:45;;;;;;;;;16.25;16.25;;;;;29.39;46.99;99563.97;5088806;28;9696;-75
2022/07/03 08:23:14;;;;;;;;;19.00;18.00;;;;;28.90;48.38;99568.59;5089794;28;8848;-73
2022/07/03 08:25:42;;;;;;;;;15.60;15.00;;;;;29.19;47.48;99571.75;5089837;28;9585;-72
2022/07/03 08:28:11;;;;;;;;;17.25;17.25;;;;;29.58;46.25;99564.22;5089782;28;8855;-72
2022/07/03 08:30:40;;;;;;;;;16.25;13.75;;;;;29.52;46.56;99565.56;5090036;28;8847;-75
2022/07/03 08:33:09;;;;;;;;;16.25;15.25;;;;;29.90;45.38;99561.66;5054493;28;8831;-73
2022/07/03 08:35:38;;;;;;;;;21.25;21.00;;;;;30.16;45.47;99560.53;5088653;28;8840;-74
2022/07/03 08:38:07;;;;;;;;;18.50;17.25;;;;;30.37;44.70;99556.09;5089991;28;8871;-73
2022/07/03 08:40:36;;;;;;;;;17.00;17.00;;;;;30.54;44.01;99565.44;5089885;28;8843;-73
2022/07/03 08:43:06;;;;;;;;;26.00;24.25;;;;;30.24;44.56;99558.91;5089792;28;8832;-72
2022/07/03 08:45:36;;;;;;;;;19.40;17.60;;;;;30.41;44.12;99556.69;5088548;28;8855;-74
2022/07/03 08:48:08;;;;;;;;;17.80;17.40;;;;;30.35;43.96;99566.13;5088232;28;8843;-72
2022/07/03 08:50:41;;;;;;;;;18.40;17.00;;;;;30.52;43.28;99560.19;5088401;28;8873;-73
2022/07/03 08:53:11;;;;;;;;;15.80;15.40;;;;;30.91;43.19;99562.38;5089450;28;8951;-75
2022/07/03 08:55:40;;;;;;;;;15.75;15.75;;;;;31.24;42.45;99566.69;5089132;28;9656;-73
2022/07/03 08:58:12;;;;;;;;;21.00;20.00;;;;;31.52;41.64;99560.78;5089406;28;9085;-72
2022/07/03 09:00:41;;;;;;;;;18.40;18.20;;;;;31.79;41.27;99557.47;5089441;28;8880;-74
2022/07/03 09:03:12;;;;;;;;;19.25;18.25;;;;;32.03;41.34;99555.31;5089711;28;8871;-72
2022/07/03 09:05:42;;;;;;;;;17.00;16.25;;;;;32.18;39.99;99557.63;5090279;28;8847;-74
2022/07/03 09:08:11;;;;;;;;;15.50;14.00;;;;;32.18;40.12;99554.94;5091338;28;8925;-73
2022/07/03 09:10:39;;;;;;;;;17.75;17.75;;;;;32.36;40.08;99555.06;5089325;28;8990;-72
2022/07/03 09:13:09;;;;;;;;;15.80;15.80;;;;;32.49;40.17;99552.97;5070246;28;8887;-73
2022/07/03 09:15:37;;;;;;;;;17.60;17.60;;;;;32.59;39.22;99544.88;5070195;28;8878;-73
2022/07/03 09:18:07;;;;;;;;;17.60;16.20;;;;;32.74;38.36;99539.91;5069552;28;8875;-71
2022/07/03 09:20:40;;;;;;;;;17.20;15.20;;;;;32.92;38.32;99534.63;5088841;28;8866;-72
2022/07/03 09:23:16;;;;;;;;;17.80;17.00;;;;;32.94;37.43;99543.44;5088943;28;8952;-74
2022/07/03 09:25:55;;;;;;;;;23.25;22.75;;;;;33.07;37.23;99535.03;5089009;28;9005;-73
2022/07/03 09:28:24;;;;;;;;;16.00;16.00;;;;;33.11;37.51;99534.63;5089003;28;8943;-72
2022/07/03 09:31:00;;;;;;;;;18.00;18.00;;;;;33.24;37.59;99534.31;5088937;28;8847;-73
2022/07/03 09:33:29;;;;;;;;;21.00;19.75;;;;;33.40;36.81;99528.25;5069791;28;8843;-72
2022/07/03 09:35:59;;;;;;;;;18.50;18.25;;;;;33.35;36.71;99527.88;5088803;28;8883;-74
2022/07/03 09:38:28;;;;;;;;;19.00;18.75;;;;;33.35;36.79;99528.72;5088631;28;8863;-74
2022/07/03 09:40:57;;;;;;;;;18.25;18.00;;;;;33.52;36.31;99527.09;5088687;28;8866;-73
2022/07/03 09:43:30;;;;;;;;;17.75;16.50;;;;;33.63;36.19;99534.16;5070240;28;8882;-73
2022/07/03 09:46:01;;;;;;;;;18.00;18.00;;;;;33.67;35.39;99532.03;5088822;28;8871;-73
2022/07/03 09:48:31;;;;;;;;;18.75;18.00;;;;;33.61;36.31;99528.03;5088633;28;8847;-74
2022/07/03 09:51:13;;;;;;;;;16.25;16.25;;;;;33.75;35.98;99527.56;5088458;28;8859;-73
2022/07/03 09:53:50;;;;;;;;;17.00;15.75;;;;;33.85;35.72;99518.56;5088378;28;8840;-73
2022/07/03 09:56:25;;;;;;;;;19.50;18.75;;;;;33.93;35.39;99518.63;5088552;28;8848;-73
2022/07/03 09:59:07;;;;;;;;;16.75;16.75;;;;;34.04;34.97;99526.53;5088705;28;8851;-72
2022/07/03 10:01:36;;;;;;;;;22.00;20.50;;;;;33.37;35.51;99520.47;5090672;28;8982;-73
2022/07/03 10:04:17;;;;;;;;;20.50;19.75;;;;;32.87;36.59;99520.69;5092791;28;8835;-71
2022/07/03 10:06:55;;;;;;;;;19.25;18.75;;;;;33.05;36.92;99518.97;5092874;28;8868;-73
2022/07/03 10:09:26;;;;;;;;;28.75;28.50;;;;;33.33;35.89;99513.66;5092660;28;8866;-73
2022/07/03 10:11:56;;;;;;;;;19.25;19.25;;;;;33.47;35.67;99518.56;5092586;28;8870;-72
2022/07/03 10:14:26;;;;;;;;;23.75;20.50;;;;;33.65;34.92;99515.09;5092096;28;8869;-73
2022/07/03 10:16:57;;;;;;;;;17.25;17.25;;;;;33.65;35.35;99506.97;5092720;28;8863;-73
2022/07/03 10:19:28;;;;;;;;;19.00;18.00;;;;;33.90;35.57;99516.25;5092304;28;8863;-72
2022/07/03 10:22:01;;;;;;;;;22.00;22.00;;;;;33.60;34.83;99516.38;5073279;28;9028;-74
2022/07/03 10:24:31;;;;;;;;;21.00;21.00;;;;;33.34;35.34;99505.38;5073800;28;8855;-72
2022/07/03 10:27:01;;;;;;;;;21.75;21.25;;;;;33.02;35.79;99508.44;5056961;28;8843;-73
2022/07/03 10:29:29;;;;;;;;;21.50;20.75;;;;;32.04;37.60;99503.06;5092648;28;8951;-76
2022/07/03 10:31:58;;;;;;;;;17.75;16.75;;;;;32.30;37.39;99501.66;5092473;28;8964;-75
2022/07/03 10:34:28;;;;;;;;;20.75;20.00;;;;;31.89;38.16;99492.78;5092315;28;9006;-73
2022/07/03 10:37:02;;;;;;;;;15.00;14.00;;;;;31.93;38.42;99492.38;5092242;28;8851;-74
2022/07/03 10:39:46;;;;;;;;;20.50;19.75;;;;;32.07;38.42;99488.44;5092120;28;8843;-74
2022/07/03 10:45:12;;;;;;;;;47.50;40.00;;;;;32.80;36.99;99482.63;5089577;28;8934;-74
2022/07/03 10:47:43;;;;;;;;;22.00;22.00;;;;;32.73;36.94;99481.50;5072449;28;8868;-75
2022/07/03 10:50:14;;;;;;;;;18.25;18.25;;;;;32.99;36.52;99471.78;5089690;28;8849;-74
2022/07/03 10:52:45;;;;;;;;;18.00;18.00;;;;;33.33;35.80;99463.13;5072363;28;8842;-74
2022/07/03 10:55:16;;;;;;;;;16.20;16.20;;;;;33.68;34.91;99460.72;5072961;28;8887;-76
2022/07/03 10:58:10;;;;;;;;;16.00;16.00;;;;;34.01;35.02;99469.16;5072943;28;8842;-75
2022/07/03 11:00:56;;;;;;;;;17.75;17.75;;;;;34.20;33.96;99471.78;5089112;28;8870;-74
2022/07/03 11:03:54;;;;;;;;;16.60;16.00;;;;;34.48;33.70;99469.81;5056022;28;8937;-75
2022/07/03 11:07:02;;;;;;;;;16.75;16.50;;;;;34.64;33.65;99458.25;5089510;28;8858;-75
2022/07/03 11:09:30;;;;;;;;;16.75;16.75;;;;;34.91;33.20;99451.84;5089292;28;8845;-74
2022/07/03 11:11:59;;;;;;;;;18.75;17.50;;;;;35.14;32.93;99459.44;5088781;28;8842;-75
2022/07/03 11:14:29;;;;;;;;;18.50;17.75;;;;;35.15;32.74;99455.72;5072031;28;8881;-76
2022/07/03 11:17:22;;;;;;;;;21.75;20.75;;;;;35.43;31.99;99448.25;5095853;28;8843;-74
2022/07/03 11:22:49;;;;;;;;;18.25;17.25;;;;;35.02;32.92;99455.31;5049168;28;8964;-74
2022/07/03 11:25:18;;;;;;;;;22.25;22.25;;;;;35.48;32.74;99454.06;5048764;28;8882;-73
2022/07/03 11:27:47;;;;;;;;;20.00;19.75;;;;;35.79;31.56;99449.94;5031914;28;8846;-73
2022/07/03 11:30:17;;;;;;;;;21.50;20.25;;;;;34.66;32.74;99455.41;5015515;28;8846;-72
2022/07/03 11:32:57;;;;;;;;;21.25;21.25;;;;;34.36;33.86;99450.25;5048547;28;8862;-73
2022/07/03 11:35:53;;;;;;;;;17.00;17.00;;;;;34.32;33.72;99446.16;5031746;28;8850;-75
2022/07/03 11:38:30;;;;;;;;;18.00;17.00;;;;;34.64;34.26;99443.88;5048366;28;8854;-73
2022/07/03 11:41:01;;;;;;;;;22.25;21.00;;;;;34.31;33.66;99452.59;5015082;28;8869;-73
2022/07/03 11:43:30;;;;;;;;;22.50;22.50;;;;;33.85;34.18;99453.63;5048074;28;8876;-74
2022/07/03 11:46:01;;;;;;;;;23.25;21.50;;;;;33.53;34.93;99446.81;4999076;28;8846;-74
2022/07/03 11:48:30;;;;;;;;;24.75;24.00;;;;;33.73;34.46;99442.19;5047847;28;8854;-73
2022/07/03 11:51:03;;;;;;;;;20.75;20.00;;;;;33.84;34.23;99436.56;5048186;28;9034;-75
2022/07/03 11:53:34;;;;;;;;;21.25;21.25;;;;;33.91;34.53;99439.47;5048034;28;8848;-75
2022/07/03 11:56:05;;;;;;;;;14.50;14.50;;;;;33.73;34.02;99432.19;5060820;28;8878;-75